Montezuma, Colorado
Current Conditions -  °F | °C
As of 8:35 PM on Monday 22 Dec 2014 (Local Time) from KCCU Reporting Station
Overcast Overcast  
Wind Chill: -11°   Ceiling: 400
Heat Index:   Visibility: NA
Dew Point:   Wind: 21mph
Humidity: 73%   Direction: 290°WNW
Pressure: 29.73"   Gusts: 29mph
Location:  39.6522°N, 106.121°W
Report Text: KCCU 230335Z AUTO 29018G25KT BKN004 OVC009 M13/M17 A2973 RMK AO2 PWINO
Loading
Personal Weather Stations






























Interactive Weather Map New forecast layout! Learn more

10-Day Weather Forecast

Advertisements
Track Severe Weather on mobile